Time;durP1;ratioP1;P1;durP2;ratioP2;P2;SDS_P1;SDS_P2;PMS_P1;PMS_P2;Temp;Humidity;BMP_temperature;BMP_pressure;BME280_temperature;BME280_humidity;BME280_pressure;Samples;Min_cycle;Max_cycle;Signal;HPM_P1;HPM_P2
2021/10/18 00:01:13;;;;;;;12.83;9.07;;;;;;;10.02;71.75;102277.00;4968142;28;20035;-70
2021/10/18 00:03:38;;;;;;;12.33;8.03;;;;;;;10.01;72.97;102278.75;4976306;28;20047;-69
2021/10/18 00:06:03;;;;;;;10.67;8.23;;;;;;;10.01;72.66;102270.88;4975892;28;20113;-70
2021/10/18 00:08:29;;;;;;;16.87;9.03;;;;;;;10.01;73.19;102277.81;4976864;28;20285;-71
2021/10/18 00:10:54;;;;;;;12.80;8.70;;;;;;;10.00;72.95;102279.56;4976053;28;20035;-71
2021/10/18 00:13:19;;;;;;;13.87;9.07;;;;;;;9.98;72.68;102282.91;4975785;28;20030;-70
2021/10/18 00:15:45;;;;;;;13.33;9.40;;;;;;;9.97;72.61;102283.72;4977020;28;20043;-70
2021/10/18 00:18:10;;;;;;;9.73;8.73;;;;;;;9.96;73.01;102285.44;4973235;28;20031;-70
2021/10/18 00:20:35;;;;;;;12.57;8.60;;;;;;;9.96;73.70;102289.78;4970094;28;20077;-70
2021/10/18 00:23:01;;;;;;;10.27;7.77;;;;;;;9.93;73.46;102286.97;4976027;28;20110;-69
2021/10/18 00:25:26;;;;;;;10.63;7.00;;;;;;;9.93;73.54;102289.59;4976045;28;20042;-69
2021/10/18 00:27:51;;;;;;;17.33;9.23;;;;;;;9.95;72.53;102293.22;4976012;28;20328;-69
2021/10/18 00:30:19;;;;;;;11.77;8.23;;;;;;;9.96;72.60;102287.16;4978079;28;20030;-70
2021/10/18 00:32:44;;;;;;;13.83;9.43;;;;;;;9.96;72.75;102298.50;4980113;28;20038;-70
2021/10/18 00:35:10;;;;;;;10.83;8.47;;;;;;;9.96;72.63;102295.03;4979927;28;20073;-71
2021/10/18 00:37:35;;;;;;;11.70;9.77;;;;;;;9.96;73.04;102292.41;4979804;28;20046;-70
2021/10/18 00:40:00;;;;;;;13.97;9.30;;;;;;;9.93;73.25;102295.75;4979318;28;20043;-70
2021/10/18 00:42:26;;;;;;;12.37;9.00;;;;;;;9.90;73.15;102301.72;4979653;28;20026;-70
2021/10/18 00:44:51;;;;;;;14.40;9.17;;;;;;;9.90;73.91;102300.78;4979425;28;20125;-69
2021/10/18 00:47:17;;;;;;;14.00;9.93;;;;;;;9.88;73.77;102292.88;4979815;28;20027;-70
2021/10/18 00:49:42;;;;;;;10.87;8.60;;;;;;;9.90;73.18;102295.56;4979223;28;20057;-70
2021/10/18 00:52:08;;;;;;;13.93;9.20;;;;;;;9.90;73.15;102303.41;4979455;28;20035;-69
2021/10/18 00:54:33;;;;;;;13.83;9.47;;;;;;;9.88;73.59;102298.13;4979775;28;20035;-70
2021/10/18 00:56:58;;;;;;;14.97;10.10;;;;;;;9.87;73.77;102295.41;4975846;28;20031;-70
2021/10/18 00:59:24;;;;;;;12.53;9.67;;;;;;;9.85;73.70;102297.94;4959765;28;20027;-71
2021/10/18 01:01:50;;;;;;;11.57;9.00;;;;;;;9.83;73.86;102296.06;4972785;28;20035;-70
2021/10/18 01:04:15;;;;;;;12.27;9.10;;;;;;;9.81;73.99;102292.44;4978615;28;20348;-70
2021/10/18 01:06:40;;;;;;;14.50;9.97;;;;;;;9.79;74.79;102288.84;4978314;28;20050;-70
2021/10/18 01:09:06;;;;;;;12.73;9.83;;;;;;;9.75;73.91;102291.31;4978761;28;20038;-70
2021/10/18 01:11:31;;;;;;;15.80;9.60;;;;;;;9.73;73.97;102289.44;4977472;28;20045;-71
2021/10/18 01:13:56;;;;;;;13.40;9.03;;;;;;;9.71;74.36;102297.19;4978554;28;20034;-69
2021/10/18 01:16:22;;;;;;;10.90;8.73;;;;;;;9.69;74.25;102293.59;4977927;28;20056;-70
2021/10/18 01:18:47;;;;;;;13.47;9.27;;;;;;;9.68;73.16;102293.50;4977605;28;20115;-70
2021/10/18 01:21:12;;;;;;;12.83;8.53;;;;;;;9.67;73.66;102295.22;4991333;28;20336;-70
2021/10/18 01:23:37;;;;;;;16.10;9.30;;;;;;;9.66;74.12;102288.19;4978947;28;20073;-68
2021/10/18 01:26:03;;;;;;;15.53;9.40;;;;;;;9.65;73.55;102286.38;4978979;28;20038;-69
2021/10/18 01:28:28;;;;;;;11.53;8.73;;;;;;;9.61;73.92;102277.44;4978798;28;20389;-69
2021/10/18 01:30:53;;;;;;;16.27;9.53;;;;;;;9.59;73.30;102278.22;4977800;28;20062;-70
2021/10/18 01:33:19;;;;;;;11.53;8.93;;;;;;;9.56;74.06;102285.88;4975945;28;20070;-69
2021/10/18 01:35:44;;;;;;;12.20;8.83;;;;;;;9.54;73.60;102282.28;4978768;28;20064;-70
2021/10/18 01:38:09;;;;;;;12.93;9.80;;;;;;;9.52;73.58;102276.94;4973194;28;20074;-70
2021/10/18 01:40:35;;;;;;;14.70;8.67;;;;;;;9.49;74.08;102275.06;4949502;28;20049;-70
2021/10/18 01:43:00;;;;;;;14.90;9.33;;;;;;;9.46;73.76;102267.06;4978408;28;20038;-70
2021/10/18 01:45:25;;;;;;;15.97;9.40;;;;;;;9.42;73.71;102256.34;4978518;28;20046;-70
2021/10/18 01:47:51;;;;;;;11.67;7.93;;;;;;;9.36;73.93;102256.91;4978549;28;20062;-70
2021/10/18 01:50:21;;;;;;;12.77;9.10;;;;;;;9.33;74.64;102256.72;4978100;28;20031;-70
2021/10/18 01:52:47;;;;;;;12.90;9.47;;;;;;;9.28;74.39;102266.03;4963342;28;20047;-69
2021/10/18 01:55:13;;;;;;;12.97;8.67;;;;;;;9.23;74.37;102259.63;4977631;28;20067;-70
2021/10/18 01:57:38;;;;;;;12.17;8.77;;;;;;;9.19;74.53;102261.16;4960877;28;20407;-70
2021/10/18 02:00:04;;;;;;;11.93;8.97;;;;;;;9.15;74.68;102262.72;4930432;28;20128;-69
2021/10/18 02:02:29;;;;;;;12.67;9.33;;;;;;;9.13;75.00;102268.66;4976675;28;20074;-69
2021/10/18 02:04:55;;;;;;;12.27;8.20;;;;;;;9.10;74.52;102264.19;4977955;28;20062;-70
2021/10/18 02:07:20;;;;;;;13.83;8.90;;;;;;;9.07;74.77;102264.91;4991334;28;20049;-70
2021/10/18 02:09:45;;;;;;;10.53;8.80;;;;;;;9.04;74.99;102259.47;4980493;28;20034;-70
2021/10/18 02:12:10;;;;;;;10.60;8.23;;;;;;;9.06;74.36;102265.72;4977580;28;20031;-70
2021/10/18 02:14:36;;;;;;;12.83;8.47;;;;;;;9.05;73.96;102269.09;4976859;28;20492;-70
2021/10/18 02:17:01;;;;;;;14.43;8.63;;;;;;;9.01;74.67;102259.31;4977930;28;20047;-71
2021/10/18 02:19:26;;;;;;;16.30;8.60;;;;;;;8.96;74.53;102262.47;4977509;28;20097;-70
2021/10/18 02:21:52;;;;;;;12.93;8.80;;;;;;;8.88;74.56;102256.78;4977214;28;20117;-70
2021/10/18 02:24:17;;;;;;;12.33;8.97;;;;;;;8.84;75.40;102249.59;4977789;28;20053;-70
2021/10/18 02:26:42;;;;;;;12.37;9.13;;;;;;;8.78;75.26;102250.16;4977834;28;20117;-70
2021/10/18 02:29:09;;;;;;;11.80;8.87;;;;;;;8.72;74.97;102255.00;4976758;28;20034;-69
2021/10/18 02:31:35;;;;;;;11.93;8.63;;;;;;;8.69;75.29;102255.72;4977696;28;20057;-69
2021/10/18 02:34:00;;;;;;;23.40;9.60;;;;;;;8.65;75.52;102251.13;4977987;28;20373;-70
2021/10/18 02:36:25;;;;;;;13.53;9.13;;;;;;;8.59;75.61;102259.50;4977886;28;20023;-69
2021/10/18 02:38:51;;;;;;;14.73;9.63;;;;;;;8.54;75.90;102249.59;4977705;28;20097;-70
2021/10/18 02:41:16;;;;;;;12.60;9.20;;;;;;;8.48;76.05;102250.09;4977547;28;20043;-71
2021/10/18 02:43:41;;;;;;;15.77;9.63;;;;;;;8.41;75.76;102242.72;4977656;28;20030;-70
2021/10/18 02:46:07;;;;;;;12.03;10.10;;;;;;;8.33;76.11;102245.78;4975803;28;20311;-70
2021/10/18 02:48:32;;;;;;;11.53;8.37;;;;;;;8.27;76.29;102242.78;4977588;28;20027;-70
2021/10/18 02:50:59;;;;;;;14.00;9.63;;;;;;;8.23;76.48;102238.19;4977567;28;20027;-70
2021/10/18 02:53:24;;;;;;;13.10;9.83;;;;;;;8.19;76.66;102244.94;4977107;28;20077;-69
2021/10/18 02:55:49;;;;;;;15.80;9.30;;;;;;;8.17;76.68;102237.81;4961126;28;20109;-69
2021/10/18 02:58:14;;;;;;;15.43;10.73;;;;;;;8.16;77.31;102243.84;4976282;28;20373;-70
2021/10/18 03:00:40;;;;;;;13.90;9.80;;;;;;;8.15;77.13;102245.56;4976648;28;20042;-69
2021/10/18 03:03:06;;;;;;;16.27;9.80;;;;;;;8.16;76.71;102252.56;4976853;28;20317;-70
2021/10/18 03:05:31;;;;;;;14.33;9.67;;;;;;;8.17;76.98;102254.41;4977024;28;20034;-71
2021/10/18 03:07:57;;;;;;;12.80;10.07;;;;;;;8.18;77.01;102256.19;4976291;28;20042;-70
2021/10/18 03:10:22;;;;;;;19.27;12.57;;;;;;;8.18;77.09;102260.50;4976325;28;20034;-70
2021/10/18 03:12:47;;;;;;;15.20;11.43;;;;;;;8.16;77.41;102254.28;4976863;28;20039;-71
2021/10/18 03:15:13;;;;;;;13.83;11.63;;;;;;;8.13;77.09;102254.09;4977085;28;20074;-69
2021/10/18 03:17:39;;;;;;;15.93;10.93;;;;;;;8.11;77.41;102254.00;4976932;28;20034;-69
2021/10/18 03:20:05;;;;;;;15.93;10.23;;;;;;;8.08;76.94;102262.53;4975849;28;20420;-70
2021/10/18 03:22:30;;;;;;;15.17;11.40;;;;;;;8.05;77.19;102254.53;4977300;28;20403;-70
2021/10/18 03:24:55;;;;;;;15.30;11.77;;;;;;;8.03;77.24;102257.88;4976441;28;20130;-70
2021/10/18 03:27:21;;;;;;;15.47;11.17;;;;;;;7.98;77.15;102258.47;4977361;28;20070;-70
2021/10/18 03:29:47;;;;;;;15.30;11.40;;;;;;;7.96;77.50;102260.09;4976871;28;20038;-70
2021/10/18 03:32:12;;;;;;;15.83;11.43;;;;;;;7.93;77.77;102254.69;4973272;28;20060;-70
2021/10/18 03:34:37;;;;;;;14.77;11.40;;;;;;;7.89;77.49;102263.13;4977052;28;20018;-70
2021/10/18 03:37:03;;;;;;;16.40;10.87;;;;;;;7.85;77.53;102253.31;4976817;28;20027;-70
2021/10/18 03:39:28;;;;;;;17.13;11.37;;;;;;;7.84;77.39;102251.47;4976955;28;20055;-69
2021/10/18 03:41:53;;;;;;;15.00;11.40;;;;;;;7.81;77.26;102252.22;4973269;28;20030;-70
2021/10/18 03:44:18;;;;;;;18.30;12.17;;;;;;;7.80;77.75;102250.38;4975823;28;20022;-69
2021/10/18 03:46:44;;;;;;;18.00;12.30;;;;;;;7.79;77.74;102253.81;4976660;28;20142;-70
2021/10/18 03:49:09;;;;;;;18.60;12.47;;;;;;;7.77;78.14;102252.81;4976612;28;20050;-69
2021/10/18 03:51:34;;;;;;;16.93;12.30;;;;;;;7.74;77.77;102254.34;4976148;28;20031;-70
2021/10/18 03:53:59;;;;;;;23.90;12.27;;;;;;;7.72;77.88;102255.94;4976939;28;20027;-69
2021/10/18 03:56:25;;;;;;;19.60;12.50;;;;;;;7.70;77.85;102254.16;4976539;28;20058;-70
2021/10/18 03:58:50;;;;;;;17.17;12.20;;;;;;;7.68;77.70;102258.34;4974948;28;20054;-69
2021/10/18 04:01:15;;;;;;;20.37;13.10;;;;;;;7.65;77.75;102266.00;4974535;28;20389;-70
2021/10/18 04:03:41;;;;;;;18.10;12.10;;;;;;;7.62;78.09;102271.03;4975490;28;20023;-69
2021/10/18 04:06:06;;;;;;;19.00;12.37;;;;;;;7.57;78.26;102262.00;4979356;28;20380;-69
2021/10/18 04:08:32;;;;;;;18.50;12.73;;;;;;;7.54;78.14;102264.41;4980941;28;20026;-68
2021/10/18 04:10:58;;;;;;;18.60;12.40;;;;;;;7.51;77.99;102262.50;4980081;28;20072;-69
2021/10/18 04:13:24;;;;;;;17.93;12.10;;;;;;;7.50;78.63;102258.09;4980752;28;20035;-69
2021/10/18 04:15:50;;;;;;;18.70;12.20;;;;;;;7.50;78.11;102254.59;4980836;28;20026;-68
2021/10/18 04:18:15;;;;;;;18.30;12.63;;;;;;;7.48;78.33;102254.47;4980970;28;20316;-69
2021/10/18 04:20:40;;;;;;;19.20;14.23;;;;;;;7.47;78.63;102257.91;4981542;28;20026;-69
2021/10/18 04:23:05;;;;;;;21.10;13.00;;;;;;;7.46;78.63;102257.81;4976997;28;20444;-69
2021/10/18 04:25:31;;;;;;;16.77;12.63;;;;;;;7.44;78.33;102260.31;4961505;28;20059;-68
2021/10/18 04:27:56;;;;;;;20.53;12.27;;;;;;;7.43;78.22;102255.91;4960873;28;20027;-70
2021/10/18 04:30:21;;;;;;;21.27;13.53;;;;;;;7.40;78.67;102251.41;4970183;28;20082;-69
2021/10/18 04:32:47;;;;;;;25.83;14.37;;;;;;;7.39;78.30;102257.41;4981176;28;20061;-69
2021/10/18 04:35:12;;;;;;;20.10;12.43;;;;;;;7.38;78.57;102255.63;4980908;28;20038;-69
2021/10/18 04:37:37;;;;;;;20.50;14.13;;;;;;;7.38;78.54;102266.03;4964346;28;20037;-68
2021/10/18 04:40:03;;;;;;;20.73;13.73;;;;;;;7.36;78.70;102265.03;4979667;28;20050;-69
2021/10/18 04:42:28;;;;;;;22.23;13.97;;;;;;;7.34;78.55;102266.63;4981122;28;20029;-69
2021/10/18 04:44:54;;;;;;;20.07;14.33;;;;;;;7.33;78.74;102269.16;4980233;28;20071;-69
2021/10/18 04:47:19;;;;;;;21.07;14.33;;;;;;;7.32;78.86;102268.25;4980817;28;20038;-70
2021/10/18 04:49:44;;;;;;;23.03;14.43;;;;;;;7.27;78.27;102265.34;4963108;28;20034;-69
2021/10/18 04:52:10;;;;;;;19.13;13.03;;;;;;;7.25;78.82;102274.78;4980122;28;20038;-69
2021/10/18 04:54:35;;;;;;;19.90;13.80;;;;;;;7.22;78.53;102274.56;4980302;28;20077;-69
2021/10/18 04:57:00;;;;;;;21.30;13.73;;;;;;;7.19;78.69;102281.28;4980709;28;20019;-68
2021/10/18 04:59:26;;;;;;;21.17;13.93;;;;;;;7.17;78.95;102277.66;4979857;28;20034;-68
2021/10/18 05:01:51;;;;;;;22.13;13.63;;;;;;;7.15;79.21;102274.97;4979630;28;20304;-69
2021/10/18 05:04:16;;;;;;;21.30;14.27;;;;;;;7.15;79.12;102275.88;4980207;28;20034;-70
2021/10/18 05:06:41;;;;;;;19.80;14.13;;;;;;;7.12;79.14;102273.06;4980103;28;20038;-69
2021/10/18 05:09:07;;;;;;;20.60;13.83;;;;;;;7.12;79.09;102269.56;4980076;28;20030;-70
2021/10/18 05:11:32;;;;;;;21.80;13.70;;;;;;;7.12;79.47;102272.16;4979746;28;20069;-69
2021/10/18 05:13:57;;;;;;;22.73;15.40;;;;;;;7.10;79.36;102272.06;4980041;28;20034;-68
2021/10/18 05:16:23;;;;;;;22.10;14.70;;;;;;;7.09;79.59;102269.38;4979795;28;20030;-70
2021/10/18 05:18:48;;;;;;;26.37;15.90;;;;;;;7.09;79.42;102272.84;4979681;28;20034;-70
2021/10/18 05:21:13;;;;;;;25.57;15.47;;;;;;;7.08;79.24;102276.28;4979388;28;20067;-69
2021/10/18 05:23:39;;;;;;;26.60;16.43;;;;;;;7.06;79.33;102283.09;4980224;28;20041;-69
2021/10/18 05:26:04;;;;;;;22.23;14.03;;;;;;;7.07;79.71;102279.69;4980833;28;20039;-69
2021/10/18 05:28:29;;;;;;;22.90;14.17;;;;;;;7.07;79.40;102291.78;4987139;28;20022;-69
2021/10/18 05:30:55;;;;;;;25.27;15.93;;;;;;;7.07;79.50;102287.50;4982090;28;20039;-69
2021/10/18 05:33:20;;;;;;;22.83;15.10;;;;;;;7.08;79.66;102285.78;4979951;28;20038;-69
2021/10/18 05:35:46;;;;;;;24.10;15.50;;;;;;;7.07;79.41;102282.28;4979665;28;20289;-69
2021/10/18 05:38:16;;;;;;;21.43;14.60;;;;;;;7.08;79.37;102285.78;4979596;28;20034;-69
2021/10/18 05:40:41;;;;;;;22.43;15.67;;;;;;;7.07;79.20;102273.56;4990477;28;20019;-69
2021/10/18 05:43:07;;;;;;;23.00;15.67;;;;;;;7.07;79.35;102281.38;4980861;28;20046;-68
2021/10/18 05:45:33;;;;;;;26.93;16.73;;;;;;;7.07;79.56;102270.94;4979832;28;20491;-69
2021/10/18 05:48:03;;;;;;;25.97;15.80;;;;;;;7.06;79.54;102280.50;4978911;28;20027;-69
2021/10/18 05:50:32;;;;;;;21.97;15.17;;;;;;;7.05;79.41;102270.88;4978904;28;20146;-70
2021/10/18 05:52:57;;;;;;;22.23;15.50;;;;;;;7.04;78.82;102274.25;4979561;28;20475;-69
2021/10/18 05:55:22;;;;;;;26.37;16.63;;;;;;;7.04;80.07;102276.84;4976551;28;20090;-69
2021/10/18 05:58:11;;;;;;;21.83;15.33;;;;;;;7.04;79.72;102273.38;4977757;28;20113;-69
2021/10/18 06:00:41;;;;;;;22.97;15.97;;;;;;;7.02;79.44;102268.03;4974688;28;20361;-69
2021/10/18 06:03:07;;;;;;;27.67;16.57;;;;;;;7.04;79.49;102275.97;4977354;28;20023;-70
2021/10/18 06:05:34;;;;;;;23.50;15.37;;;;;;;7.04;79.65;102274.25;4977861;28;20054;-70
2021/10/18 06:08:04;;;;;;;23.87;15.23;;;;;;;7.06;79.69;102266.53;4975684;28;20038;-70
2021/10/18 06:10:29;;;;;;;22.30;16.47;;;;;;;7.08;79.29;102271.06;4979697;28;20043;-68
2021/10/18 06:12:54;;;;;;;27.40;15.83;;;;;;;7.10;79.68;102272.06;4977383;28;20074;-70
2021/10/18 06:15:20;;;;;;;26.37;16.80;;;;;;;7.11;79.46;102276.47;4979555;28;20294;-70
2021/10/18 06:17:46;;;;;;;24.97;17.27;;;;;;;7.11;79.73;102279.06;4979389;28;20028;-69
2021/10/18 06:20:12;;;;;;;24.07;16.47;;;;;;;7.12;79.64;102283.47;4958929;29;20041;-69
2021/10/18 06:22:37;;;;;;;27.80;16.60;;;;;;;7.16;79.76;102279.38;4959922;28;20027;-70
2021/10/18 06:25:03;;;;;;;25.00;16.13;;;;;;;7.18;79.33;102279.47;4959589;28;20046;-70
2021/10/18 06:27:28;;;;;;;23.93;16.50;;;;;;;7.19;79.33;102278.66;4970862;28;20043;-70
2021/10/18 06:29:54;;;;;;;25.33;17.13;;;;;;;7.21;79.43;102277.97;4977768;28;20582;-70
2021/10/18 06:32:19;;;;;;;22.40;14.70;;;;;;;7.26;79.07;102278.25;4977797;28;20161;-70
2021/10/18 06:34:44;;;;;;;24.00;17.13;;;;;;;7.30;78.94;102282.91;4977047;28;20031;-68
2021/10/18 06:37:09;;;;;;;26.47;16.90;;;;;;;7.34;79.15;102295.31;4977128;28;20046;-69
2021/10/18 06:39:35;;;;;;;29.83;17.77;;;;;;;7.38;78.54;102296.41;4977285;28;20050;-69
2021/10/18 06:42:00;;;;;;;31.00;17.07;;;;;;;7.40;78.84;102293.09;4978122;28;20026;-69
2021/10/18 06:44:25;;;;;;;25.50;16.47;;;;;;;7.41;78.92;102287.06;4977371;28;20065;-70
2021/10/18 06:46:51;;;;;;;28.20;16.93;;;;;;;7.43;78.88;102295.00;4977673;28;20033;-69
2021/10/18 06:49:16;;;;;;;23.87;16.07;;;;;;;7.44;78.86;102299.41;4960051;28;20030;-69
2021/10/18 06:51:47;;;;;;;26.03;16.63;;;;;;;7.47;78.72;102301.31;4977303;28;20018;-69
2021/10/18 06:54:13;;;;;;;26.77;16.27;;;;;;;7.55;78.39;102302.72;4977777;28;20046;-69
2021/10/18 06:56:44;;;;;;;27.23;17.67;;;;;;;7.57;78.38;102295.88;4977833;28;20033;-70
2021/10/18 06:59:10;;;;;;;26.97;17.33;;;;;;;7.62;78.51;102294.50;4975806;28;20031;-69
2021/10/18 07:01:35;;;;;;;23.27;16.60;;;;;;;7.67;77.99;102300.00;4973059;28;20053;-69
2021/10/18 07:04:01;;;;;;;29.50;17.77;;;;;;;7.67;78.20;102298.25;4977245;28;20114;-69
2021/10/18 07:06:26;;;;;;;25.63;16.70;;;;;;;7.72;77.85;102300.28;4976287;28;20047;-69
2021/10/18 07:08:51;;;;;;;23.20;14.97;;;;;;;7.84;77.07;102301.03;4973117;28;20023;-69
2021/10/18 07:11:17;;;;;;;25.03;15.43;;;;;;;7.90;77.06;102305.75;4960329;28;20358;-70
2021/10/18 07:13:42;;;;;;;20.70;12.33;;;;;;;7.93;77.29;102321.59;4976985;28;20041;-69
2021/10/18 07:16:07;;;;;;;25.57;17.00;;;;;;;7.97;76.90;102323.59;4976749;28;20034;-70
2021/10/18 07:18:32;;;;;;;20.93;13.47;;;;;;;8.01;76.59;102328.19;4971568;28;20027;-69
2021/10/18 07:20:58;;;;;;;26.57;17.07;;;;;;;8.03;76.86;102323.97;4974026;28;20119;-69
2021/10/18 07:23:23;;;;;;;28.13;17.70;;;;;;;8.04;77.01;102328.38;4975323;28;20022;-70
2021/10/18 07:25:48;;;;;;;26.10;16.57;;;;;;;8.09;76.47;102337.41;4967377;28;20625;-69
2021/10/18 07:28:15;;;;;;;22.47;13.80;;;;;;;8.14;76.62;102337.69;4972704;28;20619;-69
2021/10/18 07:30:42;;;;;;;19.77;12.27;;;;;;;8.20;76.24;102343.28;4966239;28;20039;-70
2021/10/18 07:33:08;;;;;;;24.77;16.83;;;;;;;8.22;75.57;102333.84;4959159;28;20042;-69
2021/10/18 07:35:34;;;;;;;28.87;16.97;;;;;;;8.22;76.80;102333.84;4972732;28;20020;-69
2021/10/18 07:38:00;;;;;;;30.13;18.37;;;;;;;8.27;76.58;102341.97;4976611;28;20417;-69
2021/10/18 07:40:28;;;;;;;23.53;15.27;;;;;;;8.34;76.15;102349.34;4980734;28;20105;-69
2021/10/18 07:42:54;;;;;;;28.20;17.07;;;;;;;8.35;75.78;102353.78;4970298;28;20031;-69
2021/10/18 07:45:19;;;;;;;38.77;17.77;;;;;;;8.37;76.55;102346.03;4980538;28;20049;-69
2021/10/18 07:47:44;;;;;;;30.23;18.07;;;;;;;8.39;76.60;102347.94;4977085;28;20054;-69
2021/10/18 07:50:10;;;;;;;27.87;16.73;;;;;;;8.45;76.08;102343.88;4978140;28;20424;-68
2021/10/18 07:52:39;;;;;;;24.20;16.23;;;;;;;8.47;76.79;102342.28;4981499;28;20169;-69
2021/10/18 07:55:07;;;;;;;26.57;17.40;;;;;;;8.50;76.71;102351.22;4981024;28;20041;-69
2021/10/18 07:57:33;;;;;;;27.80;17.33;;;;;;;8.55;76.12;102346.31;4980886;28;20026;-69
2021/10/18 07:59:58;;;;;;;28.10;17.43;;;;;;;8.63;75.38;102339.84;4979749;28;20328;-69
2021/10/18 08:02:24;;;;;;;25.93;15.83;;;;;;;8.68;75.08;102337.50;4979451;28;20394;-69
2021/10/18 08:04:50;;;;;;;25.27;15.33;;;;;;;8.75;74.77;102333.53;4964229;28;20297;-69
2021/10/18 08:07:15;;;;;;;26.23;17.47;;;;;;;8.79;74.97;102332.94;4980537;28;20479;-70
2021/10/18 08:09:40;;;;;;;28.60;15.77;;;;;;;8.84;74.55;102328.84;4980498;28;20396;-69
2021/10/18 08:12:06;;;;;;;30.03;17.67;;;;;;;8.86;74.58;102331.56;4980357;28;20038;-70
2021/10/18 08:14:31;;;;;;;23.77;15.77;;;;;;;8.91;73.80;102335.38;4980328;28;20109;-70
2021/10/18 08:16:56;;;;;;;27.03;17.30;;;;;;;8.91;73.58;102338.84;4980905;28;20019;-70
2021/10/18 08:19:22;;;;;;;21.90;13.87;;;;;;;8.98;72.95;102326.16;4979956;28;20023;-70
2021/10/18 08:21:47;;;;;;;23.20;16.40;;;;;;;8.96;72.47;102333.03;4980738;28;20058;-70
2021/10/18 08:24:12;;;;;;;24.67;16.03;;;;;;;8.96;74.07;102331.28;4978856;28;20385;-70
2021/10/18 08:26:38;;;;;;;25.83;16.77;;;;;;;8.93;73.72;102334.63;4980077;28;20042;-70
2021/10/18 08:29:04;;;;;;;22.17;14.33;;;;;;;9.01;72.73;102328.94;4979880;28;20296;-70
2021/10/18 08:31:29;;;;;;;21.07;13.23;;;;;;;9.03;72.73;102323.00;4979323;28;20121;-70
2021/10/18 08:33:54;;;;;;;24.63;16.03;;;;;;;9.05;71.97;102316.16;4979991;28;20109;-71
2021/10/18 08:36:20;;;;;;;24.63;15.03;;;;;;;9.03;72.61;102317.78;4979449;28;20065;-69
2021/10/18 08:38:48;;;;;;;22.97;14.07;;;;;;;9.09;72.40;102325.06;4979681;28;20058;-69
2021/10/18 08:41:33;;;;;;;26.67;15.87;;;;;;;9.15;71.86;102314.97;4980097;28;20033;-71
2021/10/18 08:44:17;;;;;;;24.57;14.10;;;;;;;9.35;71.01;102307.41;4977982;28;20031;-69
2021/10/18 08:46:53;;;;;;;19.47;12.97;;;;;;;9.58;70.85;102297.31;4979442;28;20105;-70
2021/10/18 08:49:19;;;;;;;22.50;14.20;;;;;;;9.70;70.78;102304.94;4978292;28;20019;-70
2021/10/18 08:51:45;;;;;;;24.47;14.73;;;;;;;9.78;69.92;102297.53;4979459;28;20123;-70
2021/10/18 08:54:10;;;;;;;21.07;14.33;;;;;;;9.84;69.23;102279.56;4979726;28;20478;-70
2021/10/18 08:56:37;;;;;;;19.77;13.40;;;;;;;9.87;69.39;102287.56;4976084;28;20456;-71
2021/10/18 08:59:03;;;;;;;22.50;14.03;;;;;;;9.90;68.96;102292.94;4970135;28;20066;-70
2021/10/18 09:01:45;;;;;;;24.27;15.50;;;;;;;9.93;68.14;102285.28;4980066;28;20089;-71
2021/10/18 09:04:11;;;;;;;22.87;15.93;;;;;;;9.88;69.26;102287.66;4979095;28;20314;-69
2021/10/18 09:06:43;;;;;;;22.27;15.27;;;;;;;9.92;68.85;102291.34;4979844;28;20058;-69
2021/10/18 09:09:08;;;;;;;26.37;15.33;;;;;;;9.90;69.46;102272.00;4979310;28;20443;-70
2021/10/18 09:11:33;;;;;;;19.17;12.63;;;;;;;9.93;69.27;102274.81;4979009;28;20027;-70
2021/10/18 09:14:00;;;;;;;21.10;14.80;;;;;;;9.94;69.48;102274.00;4977461;28;20027;-70
2021/10/18 09:16:25;;;;;;;20.53;13.47;;;;;;;9.96;69.39;102261.88;4979366;28;20022;-69
2021/10/18 09:19:12;;;;;;;21.90;13.23;;;;;;;10.02;68.73;102258.69;4978932;28;20043;-69
2021/10/18 09:21:43;;;;;;;22.42;12.60;;;;;;;10.06;68.22;102265.91;4979849;28;20031;-70
2021/10/18 09:24:09;;;;;;;20.87;12.87;;;;;;;10.11;68.36;102261.81;4978662;28;20409;-69
2021/10/18 09:26:35;;;;;;;18.13;12.97;;;;;;;10.14;68.38;102261.06;4979307;28;20065;-69
2021/10/18 09:29:28;;;;;;;17.30;11.20;;;;;;;10.20;68.42;102268.34;4978847;28;20034;-70
2021/10/18 09:32:01;;;;;;;22.07;14.33;;;;;;;10.19;68.62;102282.28;4980307;28;20046;-69
2021/10/18 09:34:31;;;;;;;22.43;15.17;;;;;;;10.21;68.86;102296.34;4974235;28;20151;-69
2021/10/18 09:37:04;;;;;;;25.60;13.67;;;;;;;10.26;67.59;102285.28;4970841;28;20054;-70
2021/10/18 09:39:29;;;;;;;20.07;12.83;;;;;;;10.25;67.64;102285.19;4978914;28;20076;-70
2021/10/18 09:41:59;;;;;;;21.57;14.53;;;;;;;10.26;68.03;102280.03;4978644;28;20149;-71
2021/10/18 09:45:08;;;;;;;25.87;14.77;;;;;;;10.31;68.18;102283.81;4977915;28;20034;-69
2021/10/18 10:52:42;;;;;;;20.30;12.70;;;;;;;11.62;64.24;102226.38;4963659;28;20435;-69
2021/10/18 10:55:28;;;;;;;16.97;12.67;;;;;;;11.66;64.69;102229.22;4977905;28;20381;-70
2021/10/18 10:57:56;;;;;;;19.65;12.88;;;;;;;11.73;63.96;102219.00;4976544;28;20412;-70
2021/10/18 11:00:38;;;;;;;16.57;12.63;;;;;;;11.81;64.16;102199.25;4977207;28;20027;-70
2021/10/18 11:03:23;;;;;;;17.53;11.87;;;;;;;11.84;65.24;102195.88;4957820;28;20035;-70
2021/10/18 11:05:56;;;;;;;20.77;13.27;;;;;;;11.84;65.68;102188.91;4964341;28;20575;-70
2021/10/18 11:08:29;;;;;;;20.27;13.20;;;;;;;11.81;64.75;102194.91;4979518;28;20030;-69
2021/10/18 11:10:54;;;;;;;19.57;12.57;;;;;;;11.82;65.02;102196.72;4977566;28;20025;-68
2021/10/18 11:13:19;;;;;;;21.40;13.57;;;;;;;11.89;63.31;102200.50;4975896;28;20121;-68
2021/10/18 11:15:45;;;;;;;17.97;11.67;;;;;;;11.96;63.65;102199.94;4957344;28;20015;-70
2021/10/18 11:18:10;;;;;;;19.57;12.93;;;;;;;12.01;62.20;102196.63;4957373;28;20448;-69
2021/10/18 11:20:36;;;;;;;17.03;12.10;;;;;;;12.05;62.31;102182.84;4973038;28;20045;-69
2021/10/18 11:23:03;;;;;;;19.33;12.43;;;;;;;11.97;64.08;102190.34;4976628;28;20037;-69
2021/10/18 11:25:31;;;;;;;19.70;12.43;;;;;;;11.99;64.45;102195.66;4962465;28;20043;-69
2021/10/18 11:28:01;;;;;;;22.53;13.87;;;;;;;11.94;64.63;102196.34;4958051;28;20038;-68
2021/10/18 11:30:28;;;;;;;19.03;13.07;;;;;;;11.94;64.27;102187.56;4971858;28;20109;-69
2021/10/18 11:33:22;;;;;;;15.93;12.43;;;;;;;11.94;64.43;102171.81;4977125;28;20142;-68
2021/10/18 11:35:48;;;;;;;23.40;13.40;;;;;;;11.97;64.13;102164.09;4975261;28;20463;-69
2021/10/18 11:38:14;;;;;;;22.37;12.97;;;;;;;12.01;63.95;102155.50;4976840;28;20134;-70
2021/10/18 11:40:49;;;;;;;15.00;11.20;;;;;;;12.07;63.95;102140.06;4977702;28;20102;-69
2021/10/18 11:43:17;;;;;;;19.20;13.63;;;;;;;12.14;63.52;102146.47;4977008;28;20046;-69
2021/10/18 11:45:44;;;;;;;17.53;13.00;;;;;;;12.15;63.82;102139.50;4971139;28;20366;-69
2021/10/18 11:48:18;;;;;;;18.30;11.77;;;;;;;12.16;64.09;102131.69;4959096;28;20267;-70
2021/10/18 11:50:45;;;;;;;16.67;11.90;;;;;;;12.20;62.74;102133.59;4977408;28;20035;-70
2021/10/18 11:53:19;;;;;;;20.20;11.80;;;;;;;12.18;63.25;102129.13;4976123;28;20031;-71
2021/10/18 11:55:55;;;;;;;19.17;12.90;;;;;;;12.17;62.99;102125.63;4976795;28;20261;-70
2021/10/18 11:58:29;;;;;;;17.98;11.90;;;;;;;12.19;63.34;102116.06;4949740;28;20042;-70
2021/10/18 12:00:59;;;;;;;17.50;11.37;;;;;;;12.23;63.97;102122.34;4976735;28;20127;-70
2021/10/18 12:03:25;;;;;;;16.13;11.63;;;;;;;12.28;63.12;102118.19;4976313;28;20102;-69
2021/10/18 12:05:53;;;;;;;18.13;11.60;;;;;;;12.27;62.85;102140.00;4976379;28;20150;-69
2021/10/18 12:08:20;;;;;;;16.30;11.43;;;;;;;12.27;63.06;102139.13;4976097;28;20329;-69
2021/10/18 12:10:47;;;;;;;17.27;12.10;;;;;;;12.29;63.36;102133.13;4957992;28;20050;-69
2021/10/18 12:13:31;;;;;;;19.27;13.10;;;;;;;12.29;63.81;102126.94;4970838;28;20062;-70
2021/10/18 12:16:06;;;;;;;15.70;11.50;;;;;;;12.37;62.29;102128.16;4975816;28;20097;-69
2021/10/18 12:18:57;;;;;;;15.50;11.93;;;;;;;12.37;63.91;102138.66;4974284;28;20034;-71
2021/10/18 12:21:25;;;;;;;16.00;10.40;;;;;;;12.42;63.72;102128.34;4972873;28;20022;-69